Time;durP1;ratioP1;P1;durP2;ratioP2;P2;SDS_P1;SDS_P2;PMS_P1;PMS_P2;Temp;Humidity;BMP_temperature;BMP_pressure;BME280_temperature;BME280_humidity;BME280_pressure;Samples;Min_cycle;Max_cycle;Signal;HPM_P1;HPM_P2
2023/06/26 00:00:32;;;;;;;2.83;2.72;;;;;;;;;;5088343;28;20214;-74
2023/06/26 00:02:59;;;;;;;3.28;3.05;;;;;;;;;;5094855;28;20297;-74
2023/06/26 00:05:27;;;;;;;3.95;3.42;;;;;;;;;;5087741;28;20667;-74
2023/06/26 00:07:54;;;;;;;3.30;3.20;;;;;;;;;;5103815;28;20209;-74
2023/06/26 00:10:21;;;;;;;2.88;2.78;;;;;;;;;;5106087;28;20232;-74
2023/06/26 00:12:48;;;;;;;3.75;3.55;;;;;;;;;;5095367;28;20551;-74
2023/06/26 00:15:17;;;;;;;3.33;3.17;;;;;;;;;;5101788;28;20255;-73
2023/06/26 00:17:44;;;;;;;3.92;3.53;;;;;;;;;;5090714;28;20218;-74
2023/06/26 00:20:11;;;;;;;3.65;3.35;;;;;;;;;;5100133;28;20202;-74
2023/06/26 00:22:40;;;;;;;3.33;3.20;;;;;;;;;;5092304;28;20608;-74
2023/06/26 00:25:08;;;;;;;3.35;3.15;;;;;;;;;;5093250;28;20253;-73
2023/06/26 00:27:35;;;;;;;3.38;3.17;;;;;;;;;;5099804;28;20209;-73
2023/06/26 00:30:02;;;;;;;3.45;3.20;;;;;;;;;;5109433;28;20760;-74
2023/06/26 00:32:30;;;;;;;3.60;3.40;;;;;;;;;;5105989;28;20946;-75
2023/06/26 00:34:57;;;;;;;3.22;3.13;;;;;;;;;;5104118;28;20202;-74
2023/06/26 00:37:24;;;;;;;3.53;3.10;;;;;;;;;;5111671;28;20209;-74
2023/06/26 00:39:51;;;;;;;3.80;3.47;;;;;;;;;;5111566;28;20209;-75
2023/06/26 00:42:18;;;;;;;3.42;3.15;;;;;;;;;;5096348;28;20256;-74
2023/06/26 00:44:45;;;;;;;3.67;3.45;;;;;;;;;;5107797;28;20771;-75
2023/06/26 00:47:13;;;;;;;3.30;3.17;;;;;;;;;;5097929;28;20218;-74
2023/06/26 00:49:42;;;;;;;5.60;3.53;;;;;;;;;;5097124;28;20752;-74
2023/06/26 00:52:09;;;;;;;4.05;3.60;;;;;;;;;;5101238;28;20206;-74
2023/06/26 00:54:36;;;;;;;3.75;3.50;;;;;;;;;;5098095;28;20208;-75
2023/06/26 00:57:03;;;;;;;4.20;3.80;;;;;;;;;;5100623;28;20247;-74
2023/06/26 00:59:30;;;;;;;3.70;3.50;;;;;;;;;;5108562;28;20213;-74
2023/06/26 01:01:57;;;;;;;7.70;3.95;;;;;;;;;;5098125;28;20222;-74
2023/06/26 01:04:27;;;;;;;3.97;3.67;;;;;;;;;;5088932;28;20238;-74
2023/06/26 01:06:56;;;;;;;3.92;3.63;;;;;;;;;;5096653;28;20210;-74
2023/06/26 01:09:24;;;;;;;3.92;3.63;;;;;;;;;;5090953;28;20203;-74
2023/06/26 01:11:51;;;;;;;3.97;3.67;;;;;;;;;;5094711;28;20232;-74
2023/06/26 01:14:18;;;;;;;4.15;3.85;;;;;;;;;;5097319;28;20198;-74
2023/06/26 01:16:47;;;;;;;3.85;3.58;;;;;;;;;;5111122;28;20217;-74
2023/06/26 01:19:24;;;;;;;5.00;4.47;;;;;;;;;;5110514;28;20289;-74
2023/06/26 01:21:51;;;;;;;4.07;3.78;;;;;;;;;;5104631;28;20222;-74
2023/06/26 01:24:20;;;;;;;4.13;3.83;;;;;;;;;;5091454;28;20458;-73
2023/06/26 01:26:50;;;;;;;4.05;3.75;;;;;;;;;;5107520;28;20296;-75
2023/06/26 01:29:18;;;;;;;4.07;3.78;;;;;;;;;;5110317;28;20259;-75
2023/06/26 01:31:46;;;;;;;3.90;3.60;;;;;;;;;;5107832;28;20209;-74
2023/06/26 01:34:13;;;;;;;4.00;3.72;;;;;;;;;;5092701;28;20202;-75
2023/06/26 01:36:40;;;;;;;4.18;3.85;;;;;;;;;;5101654;28;20213;-75
2023/06/26 01:39:09;;;;;;;3.95;3.65;;;;;;;;;;5108428;28;20249;-75
2023/06/26 01:41:36;;;;;;;4.50;4.10;;;;;;;;;;5093668;28;20221;-74
2023/06/26 01:44:09;;;;;;;3.55;3.35;;;;;;;;;;5089521;28;20237;-74
2023/06/26 01:46:40;;;;;;;3.72;3.42;;;;;;;;;;5105508;28;20205;-74
2023/06/26 01:49:10;;;;;;;3.97;3.67;;;;;;;;;;5102163;28;20316;-74
2023/06/26 01:51:39;;;;;;;3.85;3.53;;;;;;;;;;5108884;28;20584;-74
2023/06/26 01:54:10;;;;;;;4.75;4.00;;;;;;;;;;5090803;28;20202;-74
2023/06/26 01:56:39;;;;;;;3.95;3.55;;;;;;;;;;5099756;28;20218;-74
2023/06/26 01:59:08;;;;;;;3.92;3.63;;;;;;;;;;5090418;28;20210;-73
2023/06/26 02:01:35;;;;;;;4.28;3.50;;;;;;;;;;5089615;28;20210;-74
2023/06/26 02:04:02;;;;;;;3.92;3.72;;;;;;;;;;5089188;28;20237;-73
2023/06/26 02:06:29;;;;;;;4.10;3.70;;;;;;;;;;5088636;28;20631;-74
2023/06/26 02:08:57;;;;;;;3.85;3.65;;;;;;;;;;5089628;28;20210;-73
2023/06/26 02:11:24;;;;;;;4.95;3.95;;;;;;;;;;5089440;28;20289;-73
2023/06/26 02:13:51;;;;;;;4.45;4.05;;;;;;;;;;5096448;28;20240;-73
2023/06/26 02:16:19;;;;;;;5.10;3.92;;;;;;;;;;5098824;28;20206;-74
2023/06/26 02:18:46;;;;;;;3.38;3.17;;;;;;;;;;5108088;28;20206;-74
2023/06/26 02:21:14;;;;;;;4.32;3.92;;;;;;;;;;5107800;28;20232;-74
2023/06/26 02:23:41;;;;;;;4.40;4.03;;;;;;;;;;5106696;28;20307;-74
2023/06/26 02:26:08;;;;;;;4.30;4.00;;;;;;;;;;5092537;28;20213;-74
2023/06/26 02:28:35;;;;;;;8.13;3.80;;;;;;;;;;5091291;28;20684;-74
2023/06/26 02:31:02;;;;;;;4.88;4.30;;;;;;;;;;5090984;28;20217;-74
2023/06/26 02:33:32;;;;;;;4.45;4.05;;;;;;;;;;5096768;28;20206;-74
2023/06/26 02:35:59;;;;;;;4.40;4.00;;;;;;;;;;5092090;28;20297;-74
2023/06/26 02:38:26;;;;;;;4.22;3.88;;;;;;;;;;5109280;28;20209;-73
2023/06/26 02:40:53;;;;;;;4.38;3.95;;;;;;;;;;5104891;28;20206;-74
2023/06/26 02:43:20;;;;;;;4.20;3.90;;;;;;;;;;5095806;28;20615;-74
2023/06/26 02:45:47;;;;;;;4.10;3.83;;;;;;;;;;5089415;28;20833;-74
2023/06/26 02:48:14;;;;;;;4.20;3.92;;;;;;;;;;5088410;28;20665;-74
2023/06/26 02:50:45;;;;;;;4.47;3.90;;;;;;;;;;5102703;28;20213;-74
2023/06/26 02:53:12;;;;;;;4.38;3.97;;;;;;;;;;5109605;28;20320;-74
2023/06/26 02:55:39;;;;;;;4.10;3.80;;;;;;;;;;5107542;28;20205;-74
2023/06/26 02:58:06;;;;;;;4.20;3.90;;;;;;;;;;5103090;28;20297;-74
2023/06/26 03:00:34;;;;;;;5.43;4.57;;;;;;;;;;5099496;28;20654;-74
2023/06/26 03:03:01;;;;;;;6.20;3.97;;;;;;;;;;5102852;28;20208;-74
2023/06/26 03:05:28;;;;;;;4.43;4.10;;;;;;;;;;5103430;28;20716;-74
2023/06/26 03:07:56;;;;;;;4.40;4.03;;;;;;;;;;5096004;28;20255;-74
2023/06/26 03:10:23;;;;;;;4.22;3.92;;;;;;;;;;5107717;28;20243;-74
2023/06/26 03:12:50;;;;;;;4.05;3.75;;;;;;;;;;5105406;28;20251;-74
2023/06/26 03:15:19;;;;;;;5.30;4.65;;;;;;;;;;5103287;28;20198;-74
2023/06/26 03:17:46;;;;;;;4.38;4.07;;;;;;;;;;5107784;28;20283;-74
2023/06/26 03:20:13;;;;;;;5.20;3.53;;;;;;;;;;5101302;28;20272;-74
2023/06/26 03:22:40;;;;;;;4.18;3.88;;;;;;;;;;5095477;28;20226;-73
2023/06/26 03:25:09;;;;;;;7.97;4.22;;;;;;;;;;5090518;28;20631;-74
2023/06/26 03:27:36;;;;;;;4.60;4.20;;;;;;;;;;5108113;28;20566;-74
2023/06/26 03:30:03;;;;;;;4.35;3.95;;;;;;;;;;5107198;28;20699;-74
2023/06/26 03:32:30;;;;;;;4.07;3.78;;;;;;;;;;5090460;28;20209;-74
2023/06/26 03:34:57;;;;;;;4.05;3.80;;;;;;;;;;5087150;28;20213;-73
2023/06/26 03:37:24;;;;;;;4.40;4.10;;;;;;;;;;5089516;28;20213;-74
2023/06/26 03:39:51;;;;;;;5.13;4.57;;;;;;;;;;5094270;28;20263;-74
2023/06/26 03:42:19;;;;;;;4.30;4.00;;;;;;;;;;5093958;28;20210;-74
2023/06/26 03:44:46;;;;;;;4.32;3.92;;;;;;;;;;5103821;28;20225;-74
2023/06/26 03:47:13;;;;;;;3.88;3.65;;;;;;;;;;5106964;28;20811;-74
2023/06/26 03:49:41;;;;;;;4.78;4.45;;;;;;;;;;5106597;28;20208;-74
2023/06/26 03:52:08;;;;;;;4.28;3.97;;;;;;;;;;5089470;28;20202;-74
2023/06/26 03:54:35;;;;;;;4.43;4.13;;;;;;;;;;5090415;28;20198;-73
2023/06/26 03:57:02;;;;;;;4.82;4.40;;;;;;;;;;5100630;28;20258;-73
2023/06/26 03:59:30;;;;;;;5.30;4.18;;;;;;;;;;5107559;28;20679;-75
2023/06/26 04:01:57;;;;;;;4.82;3.83;;;;;;;;;;5107225;28;20213;-74
2023/06/26 04:04:24;;;;;;;4.18;3.80;;;;;;;;;;5094577;28;20234;-73
2023/06/26 04:06:51;;;;;;;4.70;4.00;;;;;;;;;;5093521;28;20656;-73
2023/06/26 04:09:19;;;;;;;6.60;4.22;;;;;;;;;;5103512;28;20280;-73
2023/06/26 04:11:46;;;;;;;4.53;4.20;;;;;;;;;;5095533;28;20218;-74
2023/06/26 04:14:13;;;;;;;4.20;3.90;;;;;;;;;;5101218;28;20216;-74
2023/06/26 04:16:41;;;;;;;4.32;3.88;;;;;;;;;;5098884;28;20394;-74
2023/06/26 04:19:09;;;;;;;6.70;3.60;;;;;;;;;;5105233;28;20271;-74
2023/06/26 04:21:36;;;;;;;4.20;3.90;;;;;;;;;;5100919;28;20229;-74
2023/06/26 04:24:04;;;;;;;4.20;3.78;;;;;;;;;;5111936;28;20640;-73
2023/06/26 04:26:31;;;;;;;4.80;4.40;;;;;;;;;;5108006;28;20225;-73
2023/06/26 04:28:58;;;;;;;4.43;4.03;;;;;;;;;;5112765;28;20209;-72
2023/06/26 04:31:25;;;;;;;4.07;3.80;;;;;;;;;;5111785;28;20193;-72
2023/06/26 04:33:54;;;;;;;4.03;3.72;;;;;;;;;;5109409;28;20652;-73
2023/06/26 04:36:21;;;;;;;4.20;3.90;;;;;;;;;;5095052;28;20202;-73
2023/06/26 04:38:49;;;;;;;3.63;3.42;;;;;;;;;;5093108;28;20210;-66
2023/06/26 04:41:16;;;;;;;5.10;3.58;;;;;;;;;;5093103;28;20207;-66
2023/06/26 04:43:43;;;;;;;3.97;3.67;;;;;;;;;;5095674;28;20206;-65
2023/06/26 04:46:10;;;;;;;3.97;3.75;;;;;;;;;;5112445;28;20224;-70
2023/06/26 04:48:38;;;;;;;4.00;3.70;;;;;;;;;;5104030;28;20630;-70
2023/06/26 04:51:06;;;;;;;5.03;4.18;;;;;;;;;;5113565;27;20209;-69
2023/06/26 04:53:33;;;;;;;4.05;3.63;;;;;;;;;;5092788;28;20214;-71
2023/06/26 04:56:00;;;;;;;4.80;3.90;;;;;;;;;;5103919;28;20202;-71
2023/06/26 04:58:27;;;;;;;4.20;3.78;;;;;;;;;;5112268;28;20626;-70
2023/06/26 05:00:54;;;;;;;3.95;3.67;;;;;;;;;;5107571;28;20202;-70
2023/06/26 05:03:21;;;;;;;4.25;3.95;;;;;;;;;;5101566;28;20198;-71
2023/06/26 05:05:49;;;;;;;4.03;3.70;;;;;;;;;;5104380;28;20233;-71
2023/06/26 05:08:18;;;;;;;3.88;3.63;;;;;;;;;;5110845;28;20209;-71
2023/06/26 05:10:45;;;;;;;4.28;3.88;;;;;;;;;;5103131;28;20213;-71
2023/06/26 05:13:14;;;;;;;4.82;4.13;;;;;;;;;;5110396;28;20213;-71
2023/06/26 05:15:41;;;;;;;4.53;4.13;;;;;;;;;;5097090;28;20244;-71
2023/06/26 05:18:08;;;;;;;4.00;3.70;;;;;;;;;;5100590;27;20197;-70
2023/06/26 05:20:36;;;;;;;4.05;3.83;;;;;;;;;;5092308;28;20210;-71
2023/06/26 05:23:03;;;;;;;4.22;3.92;;;;;;;;;;5103412;28;20266;-71
2023/06/26 05:25:33;;;;;;;4.05;3.75;;;;;;;;;;5095214;28;20295;-72
2023/06/26 05:28:01;;;;;;;4.53;3.90;;;;;;;;;;5093658;28;20202;-71
2023/06/26 05:30:28;;;;;;;3.55;3.35;;;;;;;;;;5107598;28;20415;-72
2023/06/26 05:32:56;;;;;;;4.10;3.80;;;;;;;;;;5099861;28;20214;-69
2023/06/26 05:35:24;;;;;;;3.58;3.30;;;;;;;;;;5103522;28;20656;-70
2023/06/26 05:37:51;;;;;;;5.00;4.10;;;;;;;;;;5106564;28;20202;-69
2023/06/26 05:40:19;;;;;;;4.05;3.75;;;;;;;;;;5110869;28;20201;-72
2023/06/26 05:42:48;;;;;;;5.18;3.75;;;;;;;;;;5099202;28;20202;-67
2023/06/26 05:45:15;;;;;;;3.90;3.55;;;;;;;;;;5093901;28;20260;-72
2023/06/26 05:48:11;;;;;;;6.60;3.42;;;;;;;;;;5091758;28;20267;-72
2023/06/26 05:50:41;;;;;;;3.60;3.40;;;;;;;;;;5102858;28;20629;-72
2023/06/26 05:53:09;;;;;;;7.32;3.58;;;;;;;;;;5095253;28;20230;-67
2023/06/26 05:55:36;;;;;;;3.88;3.58;;;;;;;;;;5104269;28;20221;-66
2023/06/26 05:58:05;;;;;;;3.50;3.30;;;;;;;;;;5091247;28;20297;-66
2023/06/26 06:00:32;;;;;;;3.65;3.28;;;;;;;;;;5091437;28;20225;-71
2023/06/26 06:02:59;;;;;;;3.22;3.13;;;;;;;;;;5091382;28;20210;-71
2023/06/26 06:05:26;;;;;;;3.40;3.20;;;;;;;;;;5100330;28;20640;-71
2023/06/26 06:07:54;;;;;;;3.85;3.10;;;;;;;;;;5112571;28;20209;-68
2023/06/26 06:10:21;;;;;;;3.33;3.03;;;;;;;;;;5111596;28;20309;-69
2023/06/26 06:12:48;;;;;;;2.80;2.70;;;;;;;;;;5110221;28;20229;-68
2023/06/26 06:15:16;;;;;;;3.90;3.70;;;;;;;;;;5110695;28;20304;-69
2023/06/26 06:17:44;;;;;;;3.38;3.15;;;;;;;;;;5110582;28;20205;-69
2023/06/26 06:20:11;;;;;;;4.53;3.60;;;;;;;;;;5110510;28;20527;-68
2023/06/26 06:22:38;;;;;;;4.07;3.78;;;;;;;;;;5110353;28;20237;-68
2023/06/26 06:25:05;;;;;;;4.25;3.95;;;;;;;;;;5109874;28;20220;-69
2023/06/26 06:27:33;;;;;;;4.25;3.85;;;;;;;;;;5110128;28;20202;-70
2023/06/26 06:30:00;;;;;;;3.63;3.40;;;;;;;;;;5109822;28;20208;-71
2023/06/26 06:32:28;;;;;;;4.50;3.70;;;;;;;;;;5108972;28;20206;-70
2023/06/26 06:34:55;;;;;;;3.65;3.45;;;;;;;;;;5110667;28;20563;-70
2023/06/26 06:37:22;;;;;;;4.28;3.88;;;;;;;;;;5109802;28;20630;-70
2023/06/26 06:39:49;;;;;;;3.17;3.05;;;;;;;;;;5110028;28;20705;-70
2023/06/26 06:42:16;;;;;;;4.05;3.75;;;;;;;;;;5107229;28;20197;-70
2023/06/26 06:44:43;;;;;;;4.30;3.88;;;;;;;;;;5108884;28;20209;-70
2023/06/26 06:47:10;;;;;;;3.42;3.20;;;;;;;;;;5107380;28;20225;-70
2023/06/26 06:49:39;;;;;;;3.75;3.55;;;;;;;;;;5108818;28;20202;-70
2023/06/26 06:52:06;;;;;;;6.63;3.95;;;;;;;;;;5093472;28;20206;-71
2023/06/26 06:54:33;;;;;;;4.15;3.80;;;;;;;;;;5108789;28;20695;-71
2023/06/26 06:57:00;;;;;;;4.72;4.32;;;;;;;;;;5099828;28;20265;-70
2023/06/26 06:59:27;;;;;;;4.25;3.95;;;;;;;;;;5109017;28;20234;-71
2023/06/26 07:01:54;;;;;;;4.45;4.15;;;;;;;;;;5106429;28;20210;-70
2023/06/26 07:04:21;;;;;;;4.00;3.80;;;;;;;;;;5088303;28;20249;-70
2023/06/26 07:06:50;;;;;;;4.38;3.90;;;;;;;;;;5088047;28;20226;-71
2023/06/26 07:09:17;;;;;;;3.90;3.60;;;;;;;;;;5108362;28;20701;-71
2023/06/26 07:11:44;;;;;;;4.07;3.78;;;;;;;;;;5100965;28;20208;-67
2023/06/26 07:14:11;;;;;;;4.15;3.88;;;;;;;;;;5091543;28;20210;-65
2023/06/26 07:16:38;;;;;;;4.05;3.75;;;;;;;;;;5090074;28;20210;-65
2023/06/26 07:19:05;;;;;;;4.10;3.80;;;;;;;;;;5109660;27;20228;-65
2023/06/26 07:21:32;;;;;;;4.45;3.90;;;;;;;;;;5108532;28;20229;-66
2023/06/26 07:24:00;;;;;;;4.00;3.75;;;;;;;;;;5108202;28;20556;-66
2023/06/26 07:26:27;;;;;;;3.88;3.58;;;;;;;;;;5103851;28;20218;-63
2023/06/26 07:28:56;;;;;;;3.80;3.50;;;;;;;;;;5101522;28;20206;-65
2023/06/26 07:31:23;;;;;;;4.88;3.80;;;;;;;;;;5089996;28;20288;-61
2023/06/26 07:33:50;;;;;;;3.72;3.50;;;;;;;;;;5094631;28;20218;-65
2023/06/26 07:36:17;;;;;;;4.18;3.88;;;;;;;;;;5103017;28;20205;-66
2023/06/26 07:38:44;;;;;;;3.70;3.40;;;;;;;;;;5125362;27;20444;-66
2023/06/26 07:41:13;;;;;;;3.90;3.60;;;;;;;;;;5094760;28;20209;-66
2023/06/26 07:43:40;;;;;;;4.28;3.97;;;;;;;;;;5100968;28;20577;-66
2023/06/26 07:46:07;;;;;;;4.15;3.75;;;;;;;;;;5102015;27;20287;-66
2023/06/26 07:48:34;;;;;;;4.05;3.63;;;;;;;;;;5106147;28;20340;-66
2023/06/26 07:51:01;;;;;;;3.65;3.35;;;;;;;;;;5103154;28;20714;-66
2023/06/26 07:53:28;;;;;;;4.95;3.22;;;;;;;;;;5107916;28;20213;-66
2023/06/26 07:55:55;;;;;;;3.58;3.28;;;;;;;;;;5105241;28;20201;-66
2023/06/26 07:58:23;;;;;;;4.88;3.53;;;;;;;;;;5106444;28;20205;-66
2023/06/26 08:00:50;;;;;;;3.88;3.58;;;;;;;;;;5106979;28;20947;-66
2023/06/26 08:03:17;;;;;;;3.67;3.47;;;;;;;;;;5107009;28;20514;-66
2023/06/26 08:05:44;;;;;;;3.63;3.42;;;;;;;;;;5106796;28;20237;-66
2023/06/26 08:08:11;;;;;;;3.50;3.28;;;;;;;;;;5107980;28;20798;-66
2023/06/26 08:10:38;;;;;;;3.72;3.42;;;;;;;;;;5097926;28;20205;-66
2023/06/26 08:13:05;;;;;;;3.33;3.15;;;;;;;;;;5109435;28;20212;-66
2023/06/26 08:15:34;;;;;;;3.55;3.28;;;;;;;;;;5112558;28;20382;-66
2023/06/26 08:18:01;;;;;;;3.88;3.58;;;;;;;;;;5128501;28;20219;-66
2023/06/26 08:20:29;;;;;;;3.75;3.53;;;;;;;;;;5103394;28;20311;-65
2023/06/26 08:22:56;;;;;;;4.15;3.80;;;;;;;;;;5105860;28;20201;-66
2023/06/26 08:25:23;;;;;;;3.92;3.63;;;;;;;;;;5101107;28;20691;-65
2023/06/26 08:27:52;;;;;;;3.72;3.42;;;;;;;;;;5100109;28;20761;-65
2023/06/26 08:30:19;;;;;;;3.63;3.42;;;;;;;;;;5097070;28;20197;-65
2023/06/26 08:32:48;;;;;;;3.50;3.20;;;;;;;;;;5107117;28;20201;-65
2023/06/26 08:35:15;;;;;;;3.60;3.30;;;;;;;;;;5107588;28;20285;-65
2023/06/26 08:37:42;;;;;;;3.03;2.85;;;;;;;;;;5096705;28;20284;-66
2023/06/26 08:40:09;;;;;;;3.38;3.17;;;;;;;;;;5099356;28;20230;-66
2023/06/26 08:42:36;;;;;;;3.10;2.97;;;;;;;;;;5111656;28;20213;-66
2023/06/26 08:45:03;;;;;;;3.13;3.03;;;;;;;;;;5087178;28;20218;-72
2023/06/26 08:47:31;;;;;;;3.95;3.13;;;;;;;;;;5093914;28;20217;-67
2023/06/26 08:50:04;;;;;;;2.95;2.80;;;;;;;;;;5104786;28;20209;-66
2023/06/26 08:52:32;;;;;;;3.40;3.10;;;;;;;;;;5101843;27;20208;-66
2023/06/26 08:55:00;;;;;;;2.95;2.85;;;;;;;;;;5111332;28;20209;-66
2023/06/26 08:57:28;;;;;;;3.25;3.05;;;;;;;;;;5093776;28;20607;-66
2023/06/26 08:59:55;;;;;;;4.45;3.17;;;;;;;;;;5087814;28;20214;-67
2023/06/26 09:02:22;;;;;;;3.60;3.17;;;;;;;;;;5103341;28;20201;-67
2023/06/26 09:04:50;;;;;;;3.53;3.33;;;;;;;;;;5104773;28;20270;-67
2023/06/26 09:07:18;;;;;;;3.83;3.15;;;;;;;;;;5090040;28;20627;-67
2023/06/26 09:09:45;;;;;;;3.80;3.25;;;;;;;;;;5091393;28;20216;-67
2023/06/26 09:12:12;;;;;;;2.85;2.70;;;;;;;;;;5100744;28;20209;-67
2023/06/26 09:14:39;;;;;;;3.30;3.10;;;;;;;;;;5110575;28;20205;-67
2023/06/26 09:17:06;;;;;;;3.83;3.50;;;;;;;;;;5091247;28;20599;-68
2023/06/26 09:19:33;;;;;;;3.45;3.17;;;;;;;;;;5103560;27;20676;-67
2023/06/26 09:22:01;;;;;;;3.05;2.95;;;;;;;;;;5120589;27;20229;-67
2023/06/26 09:24:29;;;;;;;3.03;2.92;;;;;;;;;;5107368;28;20209;-68
2023/06/26 09:26:57;;;;;;;3.35;3.08;;;;;;;;;;5097034;28;20244;-67
2023/06/26 09:29:24;;;;;;;3.33;3.13;;;;;;;;;;5102720;27;20311;-67
2023/06/26 09:31:53;;;;;;;3.40;3.20;;;;;;;;;;5128272;27;20208;-67
2023/06/26 09:34:20;;;;;;;3.60;3.20;;;;;;;;;;5108398;28;20693;-67
2023/06/26 09:36:49;;;;;;;3.53;3.28;;;;;;;;;;5093809;28;20236;-67
2023/06/26 09:39:16;;;;;;;3.58;3.28;;;;;;;;;;5107647;28;20292;-68
2023/06/26 09:41:45;;;;;;;7.75;3.00;;;;;;;;;;5101427;27;20209;-68
2023/06/26 09:44:13;;;;;;;3.60;3.40;;;;;;;;;;5104128;28;20638;-67
2023/06/26 09:46:40;;;;;;;3.58;3.38;;;;;;;;;;5109238;28;20229;-67
2023/06/26 09:49:08;;;;;;;3.10;2.92;;;;;;;;;;5109140;28;20208;-67
2023/06/26 09:51:36;;;;;;;3.60;3.30;;;;;;;;;;5108841;28;20216;-67
2023/06/26 09:54:04;;;;;;;3.40;3.20;;;;;;;;;;5101153;28;20204;-68
2023/06/26 09:56:32;;;;;;;3.80;3.50;;;;;;;;;;5090333;28;20204;-67
2023/06/26 09:59:01;;;;;;;3.35;3.08;;;;;;;;;;5107576;28;20617;-67
2023/06/26 10:01:28;;;;;;;3.10;2.90;;;;;;;;;;5090369;28;20264;-67
2023/06/26 10:03:56;;;;;;;3.58;3.38;;;;;;;;;;5087091;28;20240;-64
2023/06/26 10:06:25;;;;;;;3.15;3.03;;;;;;;;;;5091205;28;20296;-65
2023/06/26 10:08:52;;;;;;;5.50;3.28;;;;;;;;;;5092220;28;20257;-65
2023/06/26 10:11:22;;;;;;;3.28;3.08;;;;;;;;;;5099344;27;20197;-65
2023/06/26 10:13:50;;;;;;;2.92;2.83;;;;;;;;;;5129906;27;20212;-65
2023/06/26 10:16:20;;;;;;;3.30;3.20;;;;;;;;;;5109331;27;20591;-65
2023/06/26 10:18:48;;;;;;;3.55;3.25;;;;;;;;;;5123715;27;20257;-65
2023/06/26 10:21:15;;;;;;;2.97;2.88;;;;;;;;;;5128920;27;20255;-65
2023/06/26 10:23:44;;;;;;;3.45;3.22;;;;;;;;;;5130112;27;20256;-66
2023/06/26 10:26:11;;;;;;;3.10;3.00;;;;;;;;;;5097518;27;20737;-65
2023/06/26 10:28:38;;;;;;;3.08;2.88;;;;;;;;;;5089121;28;20230;-65
2023/06/26 10:31:07;;;;;;;3.40;3.20;;;;;;;;;;5107381;28;20399;-65
2023/06/26 10:33:36;;;;;;;2.75;2.65;;;;;;;;;;5100126;28;20209;-66
2023/06/26 10:36:16;;;;;;;3.65;3.42;;;;;;;;;;5099212;28;20273;-66
2023/06/26 10:38:53;;;;;;;3.58;3.28;;;;;;;;;;5095432;28;20208;-66
2023/06/26 10:41:23;;;;;;;3.30;3.10;;;;;;;;;;5110162;27;20195;-66
2023/06/26 10:43:51;;;;;;;3.65;3.45;;;;;;;;;;5088816;28;20283;-66
2023/06/26 10:46:20;;;;;;;3.58;3.28;;;;;;;;;;5097606;28;20213;-66
2023/06/26 10:48:59;;;;;;;3.03;2.92;;;;;;;;;;5089848;28;20324;-65
2023/06/26 10:51:26;;;;;;;3.20;3.00;;;;;;;;;;5095077;28;20206;-66
2023/06/26 10:53:55;;;;;;;3.15;2.95;;;;;;;;;;5095403;28;20678;-66
2023/06/26 10:56:22;;;;;;;3.17;3.03;;;;;;;;;;5109171;28;20201;-66
2023/06/26 10:58:49;;;;;;;2.90;2.78;;;;;;;;;;5105888;28;20679;-65
2023/06/26 11:01:21;;;;;;;3.47;3.22;;;;;;;;;;5109050;28;20213;-65
2023/06/26 11:03:49;;;;;;;2.88;2.78;;;;;;;;;;5095441;28;20299;-65
2023/06/26 11:06:19;;;;;;;3.20;3.05;;;;;;;;;;5125306;27;20200;-65
2023/06/26 11:08:46;;;;;;;3.00;2.85;;;;;;;;;;5124267;27;20225;-65
2023/06/26 11:11:13;;;;;;;2.88;2.67;;;;;;;;;;5108479;28;20764;-68
2023/06/26 11:13:41;;;;;;;2.80;2.60;;;;;;;;;;5108316;28;20270;-68
2023/06/26 11:16:08;;;;;;;2.75;2.65;;;;;;;;;;5109213;28;20266;-64
2023/06/26 11:18:35;;;;;;;3.00;2.90;;;;;;;;;;5107226;28;20744;-65
2023/06/26 11:21:08;;;;;;;2.58;2.45;;;;;;;;;;5108299;28;20625;-67
2023/06/26 11:23:37;;;;;;;2.75;2.55;;;;;;;;;;5088428;28;20232;-65
2023/06/26 11:26:17;;;;;;;2.92;2.83;;;;;;;;;;5089498;28;20252;-64
2023/06/26 11:28:48;;;;;;;2.95;2.80;;;;;;;;;;5088316;28;20221;-65
2023/06/26 11:31:31;;;;;;;3.25;3.05;;;;;;;;;;5088528;28;20663;-66
2023/06/26 11:33:59;;;;;;;2.72;2.60;;;;;;;;;;5088557;28;20206;-66
2023/06/26 11:36:46;;;;;;;2.80;2.65;;;;;;;;;;5089454;28;20209;-65
2023/06/26 11:39:14;;;;;;;2.92;2.72;;;;;;;;;;5123167;27;20211;-66
2023/06/26 11:41:42;;;;;;;3.65;3.50;;;;;;;;;;5124047;27;20228;-67
2023/06/26 11:44:09;;;;;;;2.92;2.72;;;;;;;;;;5108461;28;20232;-66
2023/06/26 11:46:37;;;;;;;2.90;2.75;;;;;;;;;;5099069;28;20594;-64
2023/06/26 11:49:05;;;;;;;3.47;3.28;;;;;;;;;;5114326;27;20232;-66
2023/06/26 11:51:32;;;;;;;3.33;3.13;;;;;;;;;;5107035;27;20544;-67
2023/06/26 11:53:59;;;;;;;3.85;3.55;;;;;;;;;;5129150;27;20216;-66
2023/06/26 11:56:27;;;;;;;3.53;3.30;;;;;;;;;;5125141;27;20211;-72
2023/06/26 11:58:59;;;;;;;3.70;3.42;;;;;;;;;;5102034;28;20201;-67
2023/06/26 12:01:26;;;;;;;3.92;3.53;;;;;;;;;;5087893;28;20676;-67
2023/06/26 12:03:55;;;;;;;4.05;3.75;;;;;;;;;;5087567;28;20237;-66
2023/06/26 12:06:22;;;;;;;4.15;3.85;;;;;;;;;;5096645;28;20201;-66
2023/06/26 12:08:49;;;;;;;4.70;4.30;;;;;;;;;;5107835;28;20302;-65
2023/06/26 12:11:16;;;;;;;4.15;3.85;;;;;;;;;;5107558;28;20232;-65
2023/06/26 12:13:46;;;;;;;4.43;4.10;;;;;;;;;;5107045;28;20235;-65
2023/06/26 12:16:13;;;;;;;4.75;4.35;;;;;;;;;;5108257;28;20228;-64
2023/06/26 12:18:40;;;;;;;5.18;4.70;;;;;;;;;;5103854;28;20208;-74
2023/06/26 12:21:07;;;;;;;4.57;4.18;;;;;;;;;;5097372;28;20312;-76
2023/06/26 12:23:36;;;;;;;5.22;4.38;;;;;;;;;;5101183;28;20197;-76
2023/06/26 12:26:17;;;;;;;4.43;4.03;;;;;;;;;;5108165;28;20296;-75
2023/06/26 12:28:47;;;;;;;4.95;3.88;;;;;;;;;;5112351;28;20382;-75
2023/06/26 12:31:15;;;;;;;4.55;4.10;;;;;;;;;;5112676;28;20762;-75
2023/06/26 12:33:42;;;;;;;4.40;4.10;;;;;;;;;;5111923;28;20637;-75
2023/06/26 12:36:11;;;;;;;3.85;3.55;;;;;;;;;;5106692;28;20221;-75
2023/06/26 12:38:38;;;;;;;3.17;2.97;;;;;;;;;;5092331;28;20309;-76
2023/06/26 12:41:05;;;;;;;3.75;2.97;;;;;;;;;;5095678;28;20660;-76
2023/06/26 12:43:32;;;;;;;3.35;2.80;;;;;;;;;;5116614;27;20196;-76
2023/06/26 12:46:01;;;;;;;2.70;2.60;;;;;;;;;;5133226;27;20200;-75
2023/06/26 12:48:43;;;;;;;2.38;2.28;;;;;;;;;;5116436;27;20227;-75
2023/06/26 12:51:13;;;;;;;3.20;2.35;;;;;;;;;;5112399;28;20323;-75
2023/06/26 12:53:41;;;;;;;2.80;2.60;;;;;;;;;;5096530;28;20230;-76
2023/06/26 12:56:08;;;;;;;2.20;2.10;;;;;;;;;;5092025;28;20212;-75
2023/06/26 12:58:35;;;;;;;2.15;2.05;;;;;;;;;;5108922;28;20204;-76
2023/06/26 13:01:04;;;;;;;4.63;2.10;;;;;;;;;;5111314;28;20193;-75
2023/06/26 13:03:32;;;;;;;2.67;2.42;;;;;;;;;;5111194;28;20296;-74
2023/06/26 13:05:59;;;;;;;3.15;2.60;;;;;;;;;;5091774;28;20205;-75
2023/06/26 13:08:26;;;;;;;3.00;2.80;;;;;;;;;;5082055;28;20226;-76
2023/06/26 13:10:53;;;;;;;2.83;2.63;;;;;;;;;;5071079;28;20202;-75
2023/06/26 13:13:20;;;;;;;3.03;2.85;;;;;;;;;;5084557;28;20209;-67
2023/06/26 13:15:47;;;;;;;3.00;2.90;;;;;;;;;;5063482;28;20206;-65
2023/06/26 13:18:15;;;;;;;3.25;2.95;;;;;;;;;;5088571;28;20202;-65
2023/06/26 13:20:42;;;;;;;3.00;2.80;;;;;;;;;;5076689;28;21370;-66
2023/06/26 13:23:09;;;;;;;3.10;2.90;;;;;;;;;;5083590;28;20206;-66
2023/06/26 13:25:36;;;;;;;3.17;2.97;;;;;;;;;;5071360;28;20668;-65
2023/06/26 13:28:03;;;;;;;2.63;2.42;;;;;;;;;;5076281;28;20746;-66
2023/06/26 13:30:30;;;;;;;3.08;2.80;;;;;;;;;;5073644;28;20214;-66
2023/06/26 13:32:57;;;;;;;2.40;2.20;;;;;;;;;;5088710;28;20292;-66
2023/06/26 13:35:26;;;;;;;2.72;2.60;;;;;;;;;;5090443;28;20258;-68
2023/06/26 13:37:53;;;;;;;2.15;2.00;;;;;;;;;;5089808;28;20202;-65
2023/06/26 13:40:20;;;;;;;2.28;2.17;;;;;;;;;;5090318;28;20214;-66
2023/06/26 13:42:47;;;;;;;2.70;2.60;;;;;;;;;;5081802;28;20210;-64
2023/06/26 13:45:14;;;;;;;2.30;2.20;;;;;;;;;;5078159;28;20286;-64
2023/06/26 13:47:41;;;;;;;4.00;2.25;;;;;;;;;;5077333;28;20650;-64
2023/06/26 13:50:09;;;;;;;2.90;2.20;;;;;;;;;;5070268;28;20217;-63
2023/06/26 13:52:37;;;;;;;3.20;2.30;;;;;;;;;;5076768;28;20210;-63
2023/06/26 13:55:05;;;;;;;2.22;2.13;;;;;;;;;;5087889;28;20210;-64
2023/06/26 13:57:32;;;;;;;2.28;2.05;;;;;;;;;;5089326;28;20689;-64
2023/06/26 13:59:59;;;;;;;4.10;2.10;;;;;;;;;;5089770;28;20209;-63
2023/06/26 14:02:27;;;;;;;3.08;2.17;;;;;;;;;;5072300;28;20221;-64
2023/06/26 14:04:54;;;;;;;2.20;2.10;;;;;;;;;;5088304;28;20245;-64
2023/06/26 14:07:21;;;;;;;2.53;2.42;;;;;;;;;;5086970;28;20202;-64
2023/06/26 14:09:49;;;;;;;2.65;2.45;;;;;;;;;;5087165;28;20234;-64
2023/06/26 14:12:16;;;;;;;5.45;2.25;;;;;;;;;;5081479;28;20408;-63
2023/06/26 14:14:43;;;;;;;1.77;1.50;;;;;;;;;;5076852;28;20317;-63
2023/06/26 14:17:16;;;;;;;1.88;1.88;;;;;;;;;;5081496;28;20206;-64
2023/06/26 14:19:43;;;;;;;3.25;1.92;;;;;;;;;;5089134;28;20201;-64
2023/06/26 14:22:10;;;;;;;1.85;1.60;;;;;;;;;;5088842;28;20280;-64
2023/06/26 14:24:37;;;;;;;2.03;1.92;;;;;;;;;;5070845;28;20229;-64
2023/06/26 14:27:05;;;;;;;1.80;1.70;;;;;;;;;;5068888;28;20746;-64
2023/06/26 14:29:32;;;;;;;2.28;1.98;;;;;;;;;;5068620;28;20227;-64
2023/06/26 14:31:59;;;;;;;2.90;1.88;;;;;;;;;;5068881;28;20289;-64
2023/06/26 14:34:26;;;;;;;1.80;1.70;;;;;;;;;;5070170;28;20579;-64
2023/06/26 14:36:53;;;;;;;1.77;1.77;;;;;;;;;;5075136;28;20202;-63
2023/06/26 14:39:20;;;;;;;1.70;1.60;;;;;;;;;;5088943;28;20206;-64
2023/06/26 14:41:48;;;;;;;1.65;1.55;;;;;;;;;;5079084;28;20263;-62
2023/06/26 14:44:16;;;;;;;1.42;1.42;;;;;;;;;;5078608;28;20202;-63
2023/06/26 14:46:44;;;;;;;1.33;1.33;;;;;;;;;;5080666;28;20321;-63